logo
Rechercher aéroport 
image banner adimage banner adimage banner ad
image banner ad

FMMI - Antananarivo/Ivato

Situé à Antananarivo, Madagascar

ICAO - FMMI, IATA - TNR

Données fournies par Airmate  

Information générale

Coordonnées: S18°47'47" E47°28'34"
Élévation : 4198 feet MSL.
 
Voir autres Aéroports à Antananarivo

Données opérationnelles

Special qualification required
Heure actuelle UTC:
Heure actuelle locale:
Météo
METAR: FMMI 281230Z 06009KT 9999 VCSH FEW010 SCT020CB 26/18 Q1014 WS ALL RWY TEMPO 4500 TSRA
TAF: TAF FMMI 281100Z 2812/2918 34010G20KT 9999 FEW010 BKN020CB PROB40 TEMPO 2812/2822 4000 TSRA BECMG 2820/2822 04006KT FEW007 BKN020 PROB30 TEMPO 2822/2902 4500 RADZ BECMG 2907/2909 32010G22KT BKN020CB PROB40 TEMPO 2912/2918 3500 TSRA
Voir NOTAMs / SUP AIP / TFR affectant cet aéroport [VIEW]
Fréquences de communication: [VIEW]

Pistes:

Identifiant RWYQFULongueur (ft)Largeur (ft)SurfaceLDA (ft)
1199°10171148ASP
29279°10171148ASP

Coordonnées de l'aéroport

Adresse: Antananarivo Madagascar

Vue satellite de FMMI